Chinese Camp, CA (95309)

1:13 PM PDT on June 30, 2015 (GMT -0700)
Martin Terrace | | Change Station
CLOSE
Current Station
Personal Weather Station
Location: Sonora, CA
Elevation: 2060 ft
Nearby Weather Stations

Elev 2060 ft 38.00 °N, 120.41 °W | Updated 24 seconds ago

Clear
Clear
100.7 °F
Feels Like 99 °F
N
2.0
Wind Variable Wind from NNE
Gusts 5.0 mph

Today
High -- | Low -- °F
--% Chance of Precip.
Yesterday
High -- | Low -- °F
Precip. -- in
5:42 AM 8:27 PM
Waxing Gibbous, 98% visible
Pressure 29.93 in
Visibility 10.0 miles
Clouds Clear
Heat Index 99 °F
Dew Point 54 °F
Humidity 21%
Rainfall in
Snow Depth Not available.
UV 12 out of 12
Pollen 6.10 out of 12
Air Quality Not available.
Flu Activity Sporadic
METAR KO22 301955Z AUTO 25005KT 10SM CLR 39/11 A2993 RMK AO1

More Conditions Fewer Conditions

Pressure 29.93 in
Visibility 10.0 miles
Clouds Clear
Heat Index 99 °F
Dew Point 54 °F
Humidity 21%
Rainfall in
Snow Depth Not available.
UV 12 out of 12
Pollen 6.10 out of 12
Air Quality Not available.
Flu Activity Sporadic
METAR KO22 301955Z AUTO 25005KT 10SM CLR 39/11 A2993 RMK AO1

More Conditions Fewer Conditions

10-Day Weather Forecast

×

Almanac

Astronomy

Jun. 30, 2015 Rise Set
Actual Time
Civil Twilight
Nautical Twilight
Astronomical Twilight
Moon
Length of Visible Light
Length of Day
Tomorrow will be .
, % of the Moon is Illuminated

Today's Extremes

State Highs State Lows

Community

WunderPhotos

Upload Photos

1,834,065 photos uploaded!

WunderBlogs® & News

Nearby

Air Quality

  Air Quality AQ Index Pollutant
Not available.

Snow Depth

Station Depth Elevation

Earthquake Activity

City Distance Mag. Time & Date
Minimum magnitude displayed is 2.5.

Coastal Water Temperatures

Place Temperature

Stations

Nearby Weather Stations

Station Location Temp. Windchill Dew Point Humidity Wind Precip. Elev Updated Type